CLX7624 VHHH-ELLX
Flight info
| Callsign | CLX7624 |
|---|---|
| Flight time | N/A |
| Altitude | 28000 |
| Route | PECAN V10 SIKOU/K0972S0840 R339 BSE A599 LINSO/N0525F280 A599 LSO A201 ANSOS/N0523F300 A201 RAJ G463 MONDA A201 LKN M890 JAL R594 SSB L626 DPN G333 MERUN R471 RK/N0513F320 G452 ZDN L125 MURPU/N0498F340 L125 BUDED L333 DASIS UR660 ERZ UW704 SONAD UL746 ODERO DCT LUGEB DCT PELUR DCT NEPOT DCT DEGET DCT ABETI DCT RENKA DCT MAMOR DCT PETIX Z744 LEPSA/N0472F240 Z104 AGBUL T894 BITBU Z110 BETEX |
| Aircraft | B748/H-SDE3FGHIM1M2RWXY/LB1 |
Departure
| Time | N/A |
|---|---|
| Airport | Hong Kong International Airport (VHHH) |
Arrival
| Time | 2026-05-07 14:53 |
|---|---|
| Airport | Luxembourg-Findel International Airport (ELLX) |
| Time | Latitude | Longitude | Altitude | Speed | Heading |
|---|---|---|---|---|---|
| 2026-05-07 14:18 | 49.42166 | 10.58279 | 34049 ft | 487 kts | 304° |
| 2026-05-07 14:18 | 49.46118 | 10.49891 | 34045 ft | 487 kts | 304° |
| 2026-05-07 14:19 | 49.49963 | 10.41662 | 34041 ft | 486 kts | 304° |
| 2026-05-07 14:19 | 49.53926 | 10.33212 | 34041 ft | 486 kts | 306° |
| 2026-05-07 14:20 | 49.57935 | 10.24806 | 34042 ft | 486 kts | 305° |
| 2026-05-07 14:20 | 49.61862 | 10.16326 | 34044 ft | 486 kts | 304° |
| 2026-05-07 14:21 | 49.65766 | 10.07840 | 34046 ft | 486 kts | 304° |
| 2026-05-07 14:21 | 49.69613 | 9.99466 | 34047 ft | 485 kts | 304° |
| 2026-05-07 14:22 | 49.73159 | 9.90387 | 34053 ft | 485 kts | 296° |
| 2026-05-07 14:22 | 49.75944 | 9.80958 | 34053 ft | 485 kts | 293° |
| 2026-05-07 14:23 | 49.78566 | 9.71881 | 34051 ft | 484 kts | 294° |
| 2026-05-07 14:23 | 49.81324 | 9.62444 | 34053 ft | 484 kts | 293° |
| 2026-05-07 14:24 | 49.83433 | 9.52808 | 34054 ft | 484 kts | 284° |
| 2026-05-07 14:24 | 49.85002 | 9.42361 | 34053 ft | 483 kts | 283° |
| 2026-05-07 14:25 | 49.86630 | 9.32565 | 34054 ft | 483 kts | 287° |
| 2026-05-07 14:25 | 49.88455 | 9.24088 | 34053 ft | 482 kts | 288° |
| 2026-05-07 14:26 | 49.90510 | 9.14373 | 34053 ft | 482 kts | 287° |
| 2026-05-07 14:26 | 49.92219 | 9.04336 | 34052 ft | 482 kts | 279° |
| 2026-05-07 14:27 | 49.92458 | 8.94476 | 34055 ft | 482 kts | 268° |
| 2026-05-07 14:27 | 49.91828 | 8.84225 | 34055 ft | 481 kts | 261° |
| 2026-05-07 14:28 | 49.90405 | 8.74084 | 34053 ft | 481 kts | 257° |
| 2026-05-07 14:28 | 49.88921 | 8.64001 | 34053 ft | 481 kts | 257° |
| 2026-05-07 14:29 | 49.87469 | 8.53931 | 34052 ft | 481 kts | 258° |
| 2026-05-07 14:29 | 49.87168 | 8.48800 | 34054 ft | 481 kts | 272° |
| 2026-05-07 14:29 | 49.87475 | 8.43631 | 34052 ft | 481 kts | 277° |
| 2026-05-07 14:30 | 49.88786 | 8.33472 | 34051 ft | 481 kts | 283° |
| 2026-05-07 14:30 | 49.90112 | 8.25175 | 34049 ft | 482 kts | 283° |
| 2026-05-07 14:31 | 49.91643 | 8.15060 | 33843 ft | 479 kts | 283° |
| 2026-05-07 14:31 | 49.92395 | 8.10021 | 33422 ft | 480 kts | 283° |
| 2026-05-07 14:31 | 49.93151 | 8.04951 | 32960 ft | 482 kts | 283° |
| 2026-05-07 14:31 | 49.93907 | 7.99887 | 32567 ft | 481 kts | 283° |
| 2026-05-07 14:32 | 49.94399 | 7.96595 | 32308 ft | 481 kts | 283° |
| 2026-05-07 14:32 | 49.95287 | 7.91507 | 31835 ft | 482 kts | 286° |
| 2026-05-07 14:32 | 49.96605 | 7.84912 | 31221 ft | 483 kts | 287° |
| 2026-05-07 14:32 | 49.97560 | 7.79935 | 30752 ft | 483 kts | 286° |
| 2026-05-07 14:33 | 49.98206 | 7.76540 | 30455 ft | 482 kts | 286° |
| 2026-05-07 14:33 | 49.99142 | 7.71616 | 29943 ft | 483 kts | 287° |
| 2026-05-07 14:33 | 50.00174 | 7.66645 | 29390 ft | 484 kts | 288° |
| 2026-05-07 14:33 | 50.01223 | 7.61639 | 28791 ft | 486 kts | 287° |
| 2026-05-07 14:34 | 50.02248 | 7.56618 | 28211 ft | 487 kts | 287° |
| 2026-05-07 14:34 | 50.03265 | 7.51589 | 27557 ft | 488 kts | 287° |
| 2026-05-07 14:34 | 50.04192 | 7.47001 | 26830 ft | 489 kts | 287° |
| 2026-05-07 14:34 | 50.05222 | 7.41898 | 26150 ft | 488 kts | 287° |
| 2026-05-07 14:35 | 50.06240 | 7.36875 | 25468 ft | 482 kts | 287° |
| 2026-05-07 14:35 | 50.07214 | 7.31935 | 24783 ft | 474 kts | 284° |
| 2026-05-07 14:35 | 50.07837 | 7.26938 | 24117 ft | 467 kts | 278° |
| 2026-05-07 14:35 | 50.08219 | 7.21964 | 23652 ft | 457 kts | 275° |
| 2026-05-07 14:36 | 50.08431 | 7.17145 | 23497 ft | 446 kts | 273° |
| 2026-05-07 14:36 | 50.08574 | 7.12403 | 23434 ft | 432 kts | 272° |
| 2026-05-07 14:36 | 50.08732 | 7.07801 | 23304 ft | 417 kts | 273° |
| 2026-05-07 14:36 | 50.08898 | 7.03374 | 22840 ft | 404 kts | 273° |
| 2026-05-07 14:37 | 50.09064 | 6.99063 | 22338 ft | 393 kts | 273° |
| 2026-05-07 14:37 | 50.09388 | 6.90779 | 21334 ft | 374 kts | 273° |
| 2026-05-07 14:37 | 50.09504 | 6.86777 | 20832 ft | 366 kts | 270° |
| 2026-05-07 14:38 | 50.09471 | 6.82859 | 20333 ft | 359 kts | 268° |
| 2026-05-07 14:38 | 50.09314 | 6.79022 | 19822 ft | 353 kts | 259° |
| 2026-05-07 14:38 | 50.08463 | 6.75484 | 19328 ft | 347 kts | 242° |
| 2026-05-07 14:38 | 50.07217 | 6.72287 | 18838 ft | 343 kts | 237° |
| 2026-05-07 14:39 | 50.05821 | 6.69316 | 18338 ft | 338 kts | 232° |
| 2026-05-07 14:39 | 50.04297 | 6.66554 | 17837 ft | 334 kts | 229° |
| 2026-05-07 14:39 | 50.02731 | 6.63914 | 17336 ft | 329 kts | 228° |
| 2026-05-07 14:39 | 50.01208 | 6.61292 | 16871 ft | 324 kts | 229° |
| 2026-05-07 14:40 | 49.99724 | 6.58698 | 16420 ft | 319 kts | 229° |
| 2026-05-07 14:40 | 49.98099 | 6.56373 | 15967 ft | 316 kts | 218° |
| 2026-05-07 14:40 | 49.96312 | 6.54504 | 15523 ft | 312 kts | 213° |
| 2026-05-07 14:40 | 49.94432 | 6.52862 | 15073 ft | 309 kts | 209° |
| 2026-05-07 14:41 | 49.92496 | 6.51327 | 14658 ft | 308 kts | 208° |
| 2026-05-07 14:41 | 49.90593 | 6.49836 | 14257 ft | 306 kts | 208° |
| 2026-05-07 14:41 | 49.88704 | 6.48321 | 13858 ft | 304 kts | 208° |
| 2026-05-07 14:41 | 49.86864 | 6.46828 | 13512 ft | 301 kts | 209° |
| 2026-05-07 14:42 | 49.85047 | 6.45350 | 13167 ft | 300 kts | 209° |
| 2026-05-07 14:42 | 49.83210 | 6.43840 | 12815 ft | 297 kts | 211° |
| 2026-05-07 14:42 | 49.81634 | 6.41834 | 12499 ft | 292 kts | 227° |
| 2026-05-07 14:42 | 49.80357 | 6.39390 | 12146 ft | 291 kts | 234° |
| 2026-05-07 14:43 | 49.79217 | 6.36813 | 11797 ft | 290 kts | 237° |
| 2026-05-07 14:43 | 49.78158 | 6.34161 | 11445 ft | 288 kts | 239° |
| 2026-05-07 14:43 | 49.77151 | 6.31496 | 11093 ft | 285 kts | 240° |
| 2026-05-07 14:43 | 49.76170 | 6.28861 | 10741 ft | 280 kts | 240° |
| 2026-05-07 14:44 | 49.75191 | 6.26297 | 10388 ft | 275 kts | 239° |
| 2026-05-07 14:44 | 49.74214 | 6.23787 | 10036 ft | 270 kts | 239° |
| 2026-05-07 14:44 | 49.73247 | 6.21330 | 9684 ft | 266 kts | 239° |
| 2026-05-07 14:44 | 49.72288 | 6.18910 | 9331 ft | 262 kts | 239° |
| 2026-05-07 14:45 | 49.71351 | 6.16556 | 8983 ft | 258 kts | 239° |
| 2026-05-07 14:45 | 49.70414 | 6.14210 | 8632 ft | 255 kts | 239° |
| 2026-05-07 14:45 | 49.69488 | 6.11895 | 8284 ft | 251 kts | 239° |
| 2026-05-07 14:45 | 49.68581 | 6.09629 | 7937 ft | 246 kts | 239° |
| 2026-05-07 14:46 | 49.67692 | 6.07412 | 7582 ft | 239 kts | 239° |
| 2026-05-07 14:46 | 49.66829 | 6.05260 | 7226 ft | 232 kts | 239° |
| 2026-05-07 14:46 | 49.65993 | 6.03180 | 6871 ft | 225 kts | 239° |
| 2026-05-07 14:46 | 49.65174 | 6.01138 | 6526 ft | 220 kts | 239° |
| 2026-05-07 14:47 | 49.64373 | 5.99145 | 6213 ft | 218 kts | 239° |
| 2026-05-07 14:47 | 49.63585 | 5.97185 | 5921 ft | 217 kts | 239° |
| 2026-05-07 14:47 | 49.62787 | 5.95200 | 5608 ft | 218 kts | 239° |
| 2026-05-07 14:47 | 49.61988 | 5.93214 | 5266 ft | 217 kts | 238° |
| 2026-05-07 14:48 | 49.60959 | 5.91552 | 4951 ft | 216 kts | 211° |
| 2026-05-07 14:48 | 49.59514 | 5.91054 | 4652 ft | 216 kts | 178° |
| 2026-05-07 14:48 | 49.58121 | 5.91765 | 4390 ft | 216 kts | 155° |
| 2026-05-07 14:48 | 49.56871 | 5.93098 | 4163 ft | 215 kts | 147° |
| 2026-05-07 14:49 | 49.55676 | 5.94489 | 3922 ft | 215 kts | 136° |
| 2026-05-07 14:49 | 49.54911 | 5.96423 | 3671 ft | 213 kts | 109° |
| 2026-05-07 14:49 | 49.54783 | 5.98613 | 3450 ft | 200 kts | 87° |
| 2026-05-07 14:49 | 49.55136 | 6.00608 | 3217 ft | 190 kts | 72° |
| 2026-05-07 14:50 | 49.55660 | 6.02437 | 3049 ft | 185 kts | 65° |
| 2026-05-07 14:50 | 49.56283 | 6.04172 | 3032 ft | 183 kts | 60° |
| 2026-05-07 14:50 | 49.56907 | 6.05791 | 3019 ft | 171 kts | 59° |
| 2026-05-07 14:50 | 49.57490 | 6.07327 | 2982 ft | 163 kts | 59° |
| 2026-05-07 14:51 | 49.58055 | 6.08836 | 2697 ft | 162 kts | 59° |
| 2026-05-07 14:51 | 49.58620 | 6.10350 | 2460 ft | 164 kts | 59° |
| 2026-05-07 14:51 | 49.59193 | 6.11864 | 2247 ft | 163 kts | 59° |
| 2026-05-07 14:51 | 49.59779 | 6.13484 | 2011 ft | 164 kts | 60° |
| 2026-05-07 14:52 | 49.60344 | 6.15006 | 1788 ft | 162 kts | 59° |
| 2026-05-07 14:52 | 49.60901 | 6.16491 | 1598 ft | 158 kts | 59° |
| 2026-05-07 14:52 | 49.61450 | 6.17950 | 1381 ft | 157 kts | 59° |
| 2026-05-07 14:52 | 49.61987 | 6.19385 | 1248 ft | 148 kts | 60° |
| 2026-05-07 14:53 | 49.62391 | 6.20467 | 1248 ft | 85 kts | 59° |
| 2026-05-07 14:53 | 49.62629 | 6.21090 | 1248 ft | 54 kts | 61° |
| 2026-05-07 14:53 | 49.62788 | 6.21537 | 1248 ft | 37 kts | 61° |
| 2026-05-07 14:53 | 49.62890 | 6.21811 | 1248 ft | 27 kts | 59° |
| 2026-05-07 14:54 | 49.62979 | 6.22043 | 1248 ft | 18 kts | 59° |
| 2026-05-07 14:54 | 49.63050 | 6.22130 | 1248 ft | 13 kts | 354° |
| 2026-05-07 14:54 | 49.63127 | 6.22066 | 1248 ft | 12 kts | 326° |
| 2026-05-07 14:54 | 49.63194 | 6.22045 | 1248 ft | 8 kts | 40° |
| 2026-05-07 14:55 | 49.63223 | 6.22116 | 1248 ft | 8 kts | 64° |
| 2026-05-07 14:55 | 49.63245 | 6.22188 | 1248 ft | 7 kts | 65° |
| 2026-05-07 14:55 | 49.63267 | 6.22257 | 1248 ft | 7 kts | 65° |
| 2026-05-07 14:55 | 49.63287 | 6.22323 | 1248 ft | 7 kts | 65° |
| 2026-05-07 14:56 | 49.63306 | 6.22385 | 1248 ft | 7 kts | 65° |
| 2026-05-07 14:56 | 49.63325 | 6.22448 | 1248 ft | 6 kts | 63° |
| 2026-05-07 14:56 | 49.63346 | 6.22507 | 1248 ft | 6 kts | 49° |
| 2026-05-07 14:56 | 49.63385 | 6.22510 | 1248 ft | 6 kts | 337° |
| 2026-05-07 14:57 | 49.63421 | 6.22481 | 1248 ft | 6 kts | 331° |
| 2026-05-07 14:57 | 49.63456 | 6.22451 | 1248 ft | 6 kts | 330° |
| 2026-05-07 14:57 | 49.63489 | 6.22422 | 1248 ft | 5 kts | 330° |
| 2026-05-07 14:57 | 49.63521 | 6.22393 | 1248 ft | 5 kts | 330° |
| 2026-05-07 14:58 | 49.63552 | 6.22366 | 1248 ft | 5 kts | 330° |
| 2026-05-07 14:58 | 49.63582 | 6.22370 | 1248 ft | 4 kts | 39° |
| 2026-05-07 14:58 | 49.63598 | 6.22406 | 1248 ft | 4 kts | 59° |
| 2026-05-07 14:58 | 49.63612 | 6.22443 | 1248 ft | 4 kts | 60° |
| 2026-05-07 14:59 | 49.63614 | 6.22449 | 1248 ft | 0 kts | 60° |